Time;durP1;ratioP1;P1;durP2;ratioP2;P2;SDS_P1;SDS_P2;PMS_P1;PMS_P2;Temp;Humidity;BMP_temperature;BMP_pressure;BME280_temperature;BME280_humidity;BME280_pressure;Samples;Min_cycle;Max_cycle;Signal;HPM_P1;HPM_P2
2022/12/16 00:00:52;;;;;;;59.40;32.20;;;;;;;-1.54;100.00;100947.81;2614612;31;20038;-56
2022/12/16 00:03:20;;;;;;;67.40;33.22;;;;;;;-1.56;100.00;100949.66;2615093;36;20502;-54
2022/12/16 00:05:50;;;;;;;60.22;32.38;;;;;;;-1.54;100.00;100952.25;2615183;31;20157;-55
2022/12/16 00:08:18;;;;;;;63.90;32.75;;;;;;;-1.61;100.00;100946.31;2614230;36;20018;-54
2022/12/16 00:10:55;;;;;;;65.35;31.52;;;;;;;-1.77;100.00;100941.63;2614750;36;20556;-53
2022/12/16 00:13:23;;;;;;;60.40;31.00;;;;;;;-1.77;100.00;100944.25;2615287;36;20019;-57
2022/12/16 00:15:52;;;;;;;58.80;32.33;;;;;;;-1.71;100.00;100947.56;2614990;36;20582;-52
2022/12/16 00:18:20;;;;;;;57.10;30.87;;;;;;;-1.61;100.00;100951.59;2613987;36;20031;-52
2022/12/16 00:20:50;;;;;;;59.72;33.05;;;;;;;-1.62;100.00;100936.66;2615844;36;20362;-54
2022/12/16 00:23:19;;;;;;;62.70;31.00;;;;;;;-1.64;100.00;100935.88;2614723;36;20044;-52
2022/12/16 00:25:50;;;;;;;59.50;32.63;;;;;;;-1.67;100.00;100943.91;2614749;36;20042;-54
2022/12/16 00:28:22;;;;;;;60.42;31.90;;;;;;;-1.82;100.00;100942.69;2614825;36;20296;-54
2022/12/16 00:30:51;;;;;;;59.47;31.77;;;;;;;-1.83;100.00;100947.09;2615559;36;20031;-52
2022/12/16 00:33:22;;;;;;;62.83;31.42;;;;;;;-1.80;100.00;100941.69;2613895;36;20097;-52
2022/12/16 00:35:51;;;;;;;61.95;33.17;;;;;;;-1.78;100.00;100947.78;2615426;36;20034;-55
2022/12/16 00:38:20;;;;;;;70.70;33.35;;;;;;;-1.68;100.00;100955.38;2613896;36;20034;-52
2022/12/16 00:40:51;;;;;;;66.78;35.25;;;;;;;-1.52;100.00;100956.53;2614996;36;20109;-54
2022/12/16 00:43:21;;;;;;;64.47;32.75;;;;;;;-1.43;100.00;100960.63;2615631;31;20035;-56
2022/12/16 00:45:52;;;;;;;66.03;36.10;;;;;;;-1.34;100.00;100959.41;2615772;36;20522;-55
2022/12/16 00:48:22;;;;;;;69.15;35.60;;;;;;;-1.32;100.00;100962.88;2612484;36;20126;-54
2022/12/16 00:50:51;;;;;;;68.55;35.40;;;;;;;-1.21;100.00;100965.94;2615289;36;20426;-53
2022/12/16 00:53:20;;;;;;;69.07;35.38;;;;;;;-1.09;100.00;100969.91;2614639;36;20061;-55
2022/12/16 00:55:51;;;;;;;73.13;34.92;;;;;;;-1.16;100.00;100973.69;2615199;36;20427;-54
2022/12/16 00:58:20;;;;;;;82.80;36.88;;;;;;;-1.16;100.00;100979.84;2613637;36;20038;-56
2022/12/16 01:00:48;;;;;;;77.28;37.55;;;;;;;-0.97;100.00;100977.38;2609787;31;20034;-55
2022/12/16 01:03:16;;;;;;;75.35;37.72;;;;;;;-0.93;100.00;100975.47;2611602;31;20041;-53
2022/12/16 01:05:45;;;;;;;77.18;37.60;;;;;;;-0.80;100.00;100981.97;2613268;36;20034;-56
2022/12/16 01:08:13;;;;;;;74.25;38.95;;;;;;;-0.75;100.00;100977.41;2615352;36;20038;-52
2022/12/16 01:10:41;;;;;;;63.65;36.40;;;;;;;-0.77;100.00;100981.84;2615453;36;20034;-55
2022/12/16 01:13:16;;;;;;;69.80;36.17;;;;;;;-0.52;100.00;100985.31;2615600;36;20065;-56
2022/12/16 01:15:44;;;;;;;69.78;37.10;;;;;;;-0.40;100.00;100990.97;2614644;36;20038;-56
2022/12/16 01:18:12;;;;;;;66.55;36.25;;;;;;;-0.43;100.00;100996.38;2612941;36;20041;-57
2022/12/16 01:20:41;;;;;;;69.25;35.90;;;;;;;-0.50;100.00;101001.97;2615582;31;20823;-56
2022/12/16 01:23:09;;;;;;;65.32;36.22;;;;;;;-0.33;100.00;101011.88;2615221;31;20041;-55
2022/12/16 01:25:38;;;;;;;65.45;34.55;;;;;;;-0.34;100.00;101016.28;2610604;36;20547;-53
2022/12/16 01:28:06;;;;;;;64.60;34.97;;;;;;;-0.37;100.00;101027.00;2609727;31;20107;-54
2022/12/16 01:30:37;;;;;;;59.95;32.67;;;;;;;-0.32;100.00;101024.16;2609010;36;20031;-55
2022/12/16 01:33:06;;;;;;;57.08;31.33;;;;;;;-0.21;100.00;101028.13;2611511;36;20034;-56
2022/12/16 01:35:34;;;;;;;56.80;32.05;;;;;;;-0.19;100.00;101028.91;2612030;31;20447;-53
2022/12/16 01:38:02;;;;;;;59.45;32.08;;;;;;;-0.20;100.00;101027.19;2610235;36;20061;-56
2022/12/16 01:40:31;;;;;;;59.00;31.10;;;;;;;-0.11;100.00;101033.88;2610640;36;20113;-55
2022/12/16 01:42:59;;;;;;;64.40;32.63;;;;;;;-0.02;100.00;101033.47;2609702;36;20035;-56
2022/12/16 01:45:33;;;;;;;52.92;28.15;;;;;;;0.01;100.00;101037.78;2611659;36;20030;-56
2022/12/16 01:48:09;;;;;;;49.72;26.67;;;;;;;0.07;100.00;101034.03;2610551;31;20555;-55
2022/12/16 01:50:42;;;;;;;42.50;23.35;;;;;;;0.21;100.00;101039.63;2612163;31;20023;-55
2022/12/16 01:53:11;;;;;;;43.17;23.55;;;;;;;0.47;100.00;101035.84;2612173;36;20570;-56
2022/12/16 01:55:43;;;;;;;42.10;22.85;;;;;;;0.44;100.00;101040.41;2611745;36;20034;-57
2022/12/16 01:58:15;;;;;;;44.83;23.65;;;;;;;0.44;100.00;101037.75;2612262;36;20027;-53
2022/12/16 02:00:44;;;;;;;40.35;22.55;;;;;;;0.52;100.00;101039.13;2610781;36;20043;-56
2022/12/16 02:03:16;;;;;;;36.30;20.60;;;;;;;0.60;100.00;101052.03;2614704;36;20058;-55
2022/12/16 02:05:47;;;;;;;35.55;21.00;;;;;;;0.75;100.00;101053.19;2612146;36;20482;-61
2022/12/16 02:08:17;;;;;;;34.85;19.00;;;;;;;0.74;100.00;101047.91;2612587;36;20585;-55
2022/12/16 02:11:02;;;;;;;35.88;18.75;;;;;;;0.82;100.00;101045.78;2615023;36;20555;-56
2022/12/16 02:13:45;;;;;;;32.30;18.10;;;;;;;0.72;100.00;101044.50;2614913;36;20022;-56
2022/12/16 02:16:20;;;;;;;33.35;18.73;;;;;;;0.75;100.00;101054.94;2612576;36;20043;-53
2022/12/16 02:18:59;;;;;;;45.33;21.50;;;;;;;0.75;100.00;101058.47;2611210;36;20034;-54
2022/12/16 02:21:48;;;;;;;41.92;21.38;;;;;;;0.72;100.00;101063.88;2611059;36;20037;-54
2022/12/16 02:24:43;;;;;;;43.55;23.20;;;;;;;0.94;100.00;101061.13;2612443;36;20069;-56
2022/12/16 02:27:37;;;;;;;44.15;23.45;;;;;;;0.86;100.00;101071.22;2610733;36;20046;-55
2022/12/16 02:30:09;;;;;;;45.97;23.23;;;;;;;0.93;100.00;101063.84;2611378;36;20046;-54
2022/12/16 02:32:50;;;;;;;40.22;23.08;;;;;;;0.93;100.00;101072.69;2613163;31;20430;-55
2022/12/16 02:35:29;;;;;;;45.65;22.45;;;;;;;0.88;100.00;101072.00;2610095;36;20030;-57
2022/12/16 02:38:09;;;;;;;52.07;25.03;;;;;;;0.93;100.00;101069.16;2611697;31;20034;-56
2022/12/16 02:40:45;;;;;;;46.28;24.65;;;;;;;1.04;100.00;101074.84;2612712;31;20045;-54
2022/12/16 02:43:20;;;;;;;51.38;25.42;;;;;;;1.05;100.00;101081.88;2611108;31;20567;-55
2022/12/16 02:45:49;;;;;;;46.35;23.95;;;;;;;0.96;100.00;101077.00;2611819;36;20038;-55
2022/12/16 02:48:20;;;;;;;48.15;24.25;;;;;;;1.06;100.00;101083.59;2609927;36;20556;-54
2022/12/16 02:50:53;;;;;;;46.92;24.65;;;;;;;1.02;100.00;101077.56;2611141;36;20050;-54
2022/12/16 02:53:22;;;;;;;49.97;25.00;;;;;;;1.03;100.00;101081.94;2610183;36;20069;-55
2022/12/16 02:56:02;;;;;;;45.90;24.02;;;;;;;1.04;100.00;101086.28;2611855;36;20034;-57
2022/12/16 02:58:39;;;;;;;48.47;24.65;;;;;;;1.05;100.00;101090.66;2610627;31;20066;-54
2022/12/16 03:01:14;;;;;;;51.15;25.15;;;;;;;1.09;100.00;101088.75;2610834;36;20041;-56
2022/12/16 03:03:52;;;;;;;49.85;24.77;;;;;;;1.11;100.00;101099.28;2610089;36;20034;-56
2022/12/16 03:06:24;;;;;;;51.50;24.75;;;;;;;1.05;100.00;101101.28;2611235;36;20034;-53
2022/12/16 03:08:57;;;;;;;50.90;24.45;;;;;;;0.98;100.00;101104.28;2610574;36;20034;-55
2022/12/16 03:11:27;;;;;;;49.92;25.13;;;;;;;1.02;100.00;101105.88;2611531;36;20035;-56
2022/12/16 03:13:58;;;;;;;43.80;24.05;;;;;;;1.11;100.00;101104.59;2611495;36;20089;-55
2022/12/16 03:16:31;;;;;;;48.22;24.73;;;;;;;1.16;100.00;101116.72;2610951;36;20534;-55
2022/12/16 03:19:06;;;;;;;41.10;24.08;;;;;;;1.17;100.00;101121.06;2611478;36;20042;-57
2022/12/16 03:21:39;;;;;;;47.40;24.92;;;;;;;1.13;100.00;101129.22;2610662;36;20030;-56
2022/12/16 03:24:12;;;;;;;44.97;23.38;;;;;;;1.22;100.00;101129.69;2613090;36;20565;-55
2022/12/16 03:26:49;;;;;;;48.47;25.77;;;;;;;1.17;100.00;101130.81;2611673;31;20046;-54
2022/12/16 03:29:23;;;;;;;45.55;25.23;;;;;;;1.22;100.00;101135.00;2612831;36;20130;-56
2022/12/16 03:31:57;;;;;;;43.28;22.40;;;;;;;1.32;100.00;101146.03;2611952;36;20029;-57
2022/12/16 03:34:36;;;;;;;42.92;23.70;;;;;;;1.36;100.00;101146.75;2611158;36;20045;-56
2022/12/16 03:37:07;;;;;;;45.40;24.45;;;;;;;1.33;100.00;101152.22;2610986;36;20034;-51
2022/12/16 03:39:42;;;;;;;40.20;23.80;;;;;;;1.29;100.00;101151.47;2611428;36;20030;-56
2022/12/16 03:42:11;;;;;;;44.50;22.58;;;;;;;1.29;100.00;101156.78;2612675;36;20034;-54
2022/12/16 03:44:40;;;;;;;41.80;22.48;;;;;;;1.33;100.00;101153.06;2611602;36;20031;-57
2022/12/16 03:47:09;;;;;;;43.63;22.63;;;;;;;1.35;100.00;101161.78;2611475;36;20034;-52
2022/12/16 03:49:41;;;;;;;41.90;22.52;;;;;;;1.33;100.00;101158.38;2611201;36;20022;-56
2022/12/16 03:52:10;;;;;;;38.45;21.55;;;;;;;1.38;100.00;101156.38;2611649;36;20034;-55
2022/12/16 03:54:38;;;;;;;42.33;21.77;;;;;;;1.39;100.00;101173.16;2613854;31;20033;-55
2022/12/16 03:57:11;;;;;;;40.60;21.83;;;;;;;1.27;100.00;101171.91;2611304;39;20405;-54
2022/12/16 03:59:39;;;;;;;41.10;21.65;;;;;;;1.21;100.00;101174.84;2610791;36;20296;-57
2022/12/16 04:02:08;;;;;;;39.28;21.80;;;;;;;1.24;100.00;101174.69;2610495;36;20023;-56
2022/12/16 04:04:36;;;;;;;36.65;20.80;;;;;;;1.31;100.00;101167.31;2609400;36;20082;-54
2022/12/16 04:09:48;;;;;;;40.45;21.52;;;;;;;1.20;100.00;101178.41;2610033;36;20506;-55
2022/12/16 04:25:45;;;;;;;40.22;21.33;;;;;;;1.19;100.00;101182.84;2609721;36;20041;-57
2022/12/16 04:28:14;;;;;;;36.92;20.33;;;;;;;1.16;100.00;101177.69;2611370;36;20030;-53
2022/12/16 04:30:42;;;;;;;33.05;19.05;;;;;;;1.10;100.00;101177.09;2611576;36;20034;-57
